sensor_id;sensor_type;location;lat;lon;timestamp;P1;durP1;ratioP1;P2;durP2;ratioP2
9986;SDS011;5033;46.310;11.214;2023-03-04T00:01:41;5.53;;;5.03;;
9986;SDS011;5033;46.310;11.214;2023-03-04T00:04:08;5.50;;;5.00;;
9986;SDS011;5033;46.310;11.214;2023-03-04T00:06:35;5.63;;;4.97;;
9986;SDS011;5033;46.310;11.214;2023-03-04T00:09:04;5.88;;;5.38;;
9986;SDS011;5033;46.310;11.214;2023-03-04T00:11:32;5.68;;;5.18;;
9986;SDS011;5033;46.310;11.214;2023-03-04T00:13:59;5.47;;;5.07;;
9986;SDS011;5033;46.310;11.214;2023-03-04T00:16:28;6.07;;;5.57;;
9986;SDS011;5033;46.310;11.214;2023-03-04T00:18:55;6.25;;;5.75;;
9986;SDS011;5033;46.310;11.214;2023-03-04T00:21:22;6.55;;;5.95;;
9986;SDS011;5033;46.310;11.214;2023-03-04T00:23:49;6.72;;;6.03;;
9986;SDS011;5033;46.310;11.214;2023-03-04T00:26:16;6.85;;;6.25;;
9986;SDS011;5033;46.310;11.214;2023-03-04T00:28:44;6.40;;;5.80;;
9986;SDS011;5033;46.310;11.214;2023-03-04T00:31:11;6.60;;;6.00;;
9986;SDS011;5033;46.310;11.214;2023-03-04T00:33:39;6.40;;;5.80;;
9986;SDS011;5033;46.310;11.214;2023-03-04T00:36:07;7.35;;;6.43;;
9986;SDS011;5033;46.310;11.214;2023-03-04T00:38:35;6.50;;;5.90;;
9986;SDS011;5033;46.310;11.214;2023-03-04T00:41:03;6.30;;;5.68;;
9986;SDS011;5033;46.310;11.214;2023-03-04T00:43:30;6.20;;;5.70;;
9986;SDS011;5033;46.310;11.214;2023-03-04T00:45:57;6.93;;;6.32;;
9986;SDS011;5033;46.310;11.214;2023-03-04T00:48:25;6.40;;;5.80;;
9986;SDS011;5033;46.310;11.214;2023-03-04T00:50:53;6.05;;;5.55;;
9986;SDS011;5033;46.310;11.214;2023-03-04T00:53:20;7.05;;;6.07;;
9986;SDS011;5033;46.310;11.214;2023-03-04T00:55:48;6.18;;;5.57;;
9986;SDS011;5033;46.310;11.214;2023-03-04T00:58:15;6.15;;;5.65;;
9986;SDS011;5033;46.310;11.214;2023-03-04T01:00:42;6.72;;;5.55;;
9986;SDS011;5033;46.310;11.214;2023-03-04T01:03:09;5.75;;;5.25;;
9986;SDS011;5033;46.310;11.214;2023-03-04T01:05:37;6.07;;;5.47;;
9986;SDS011;5033;46.310;11.214;2023-03-04T01:08:05;7.28;;;5.68;;
9986;SDS011;5033;46.310;11.214;2023-03-04T01:10:32;6.03;;;5.53;;
9986;SDS011;5033;46.310;11.214;2023-03-04T01:13:00;6.03;;;5.43;;
9986;SDS011;5033;46.310;11.214;2023-03-04T01:15:27;6.07;;;5.50;;
9986;SDS011;5033;46.310;11.214;2023-03-04T01:17:54;6.88;;;6.20;;
9986;SDS011;5033;46.310;11.214;2023-03-04T01:20:21;6.10;;;5.60;;
9986;SDS011;5033;46.310;11.214;2023-03-04T01:22:48;6.22;;;5.65;;
9986;SDS011;5033;46.310;11.214;2023-03-04T01:25:17;6.40;;;5.80;;
9986;SDS011;5033;46.310;11.214;2023-03-04T01:27:44;6.03;;;5.47;;
9986;SDS011;5033;46.310;11.214;2023-03-04T01:30:11;5.93;;;5.40;;
9986;SDS011;5033;46.310;11.214;2023-03-04T01:32:39;5.78;;;5.28;;
9986;SDS011;5033;46.310;11.214;2023-03-04T01:35:06;6.15;;;5.68;;
9986;SDS011;5033;46.310;11.214;2023-03-04T01:37:33;6.82;;;6.22;;
9986;SDS011;5033;46.310;11.214;2023-03-04T01:40:00;6.90;;;6.18;;
9986;SDS011;5033;46.310;11.214;2023-03-04T01:42:32;6.18;;;5.57;;
9986;SDS011;5033;46.310;11.214;2023-03-04T01:45:00;7.28;;;5.70;;
9986;SDS011;5033;46.310;11.214;2023-03-04T01:47:28;6.07;;;5.50;;
9986;SDS011;5033;46.310;11.214;2023-03-04T01:49:56;6.90;;;5.80;;
9986;SDS011;5033;46.310;11.214;2023-03-04T01:52:26;10.95;;;6.25;;
9986;SDS011;5033;46.310;11.214;2023-03-04T01:54:54;6.38;;;5.72;;
9986;SDS011;5033;46.310;11.214;2023-03-04T01:57:23;6.60;;;5.90;;
9986;SDS011;5033;46.310;11.214;2023-03-04T02:02:43;5.30;;;4.78;;
9986;SDS011;5033;46.310;11.214;2023-03-04T02:05:10;11.73;;;6.50;;
9986;SDS011;5033;46.310;11.214;2023-03-04T02:07:37;5.32;;;4.82;;
9986;SDS011;5033;46.310;11.214;2023-03-04T02:10:05;5.30;;;4.90;;
9986;SDS011;5033;46.310;11.214;2023-03-04T02:12:32;5.85;;;5.35;;
9986;SDS011;5033;46.310;11.214;2023-03-04T02:14:59;5.70;;;5.20;;
9986;SDS011;5033;46.310;11.214;2023-03-04T02:17:28;5.22;;;4.72;;
9986;SDS011;5033;46.310;11.214;2023-03-04T02:19:58;5.00;;;4.57;;
9986;SDS011;5033;46.310;11.214;2023-03-04T02:22:32;4.43;;;3.97;;
9986;SDS011;5033;46.310;11.214;2023-03-04T02:25:05;6.15;;;4.97;;
9986;SDS011;5033;46.310;11.214;2023-03-04T02:27:37;4.70;;;4.30;;
9986;SDS011;5033;46.310;11.214;2023-03-04T02:30:05;5.10;;;4.63;;
9986;SDS011;5033;46.310;11.214;2023-03-04T02:32:33;5.45;;;4.82;;
9986;SDS011;5033;46.310;11.214;2023-03-04T02:35:00;4.93;;;4.32;;
9986;SDS011;5033;46.310;11.214;2023-03-04T02:37:27;5.43;;;4.97;;
9986;SDS011;5033;46.310;11.214;2023-03-04T02:39:54;4.30;;;3.97;;
9986;SDS011;5033;46.310;11.214;2023-03-04T02:42:21;4.90;;;4.45;;
9986;SDS011;5033;46.310;11.214;2023-03-04T02:44:58;5.63;;;5.13;;
9986;SDS011;5033;46.310;11.214;2023-03-04T02:47:26;4.97;;;4.47;;
9986;SDS011;5033;46.310;11.214;2023-03-04T02:49:53;4.88;;;4.40;;
9986;SDS011;5033;46.310;11.214;2023-03-04T02:52:23;4.53;;;4.13;;
9986;SDS011;5033;46.310;11.214;2023-03-04T02:54:51;5.05;;;4.65;;
9986;SDS011;5033;46.310;11.214;2023-03-04T02:57:18;5.07;;;4.68;;
9986;SDS011;5033;46.310;11.214;2023-03-04T02:59:45;5.32;;;4.93;;
9986;SDS011;5033;46.310;11.214;2023-03-04T03:02:14;5.03;;;4.55;;
9986;SDS011;5033;46.310;11.214;2023-03-04T03:04:41;5.60;;;4.93;;
9986;SDS011;5033;46.310;11.214;2023-03-04T03:07:09;5.15;;;4.65;;
9986;SDS011;5033;46.310;11.214;2023-03-04T03:09:35;5.13;;;4.72;;
9986;SDS011;5033;46.310;11.214;2023-03-04T03:12:03;8.65;;;5.38;;
9986;SDS011;5033;46.310;11.214;2023-03-04T03:14:30;4.88;;;4.38;;
9986;SDS011;5033;46.310;11.214;2023-03-04T03:16:57;5.60;;;5.10;;
9986;SDS011;5033;46.310;11.214;2023-03-04T03:19:26;5.10;;;4.70;;
9986;SDS011;5033;46.310;11.214;2023-03-04T03:21:53;4.97;;;4.57;;
9986;SDS011;5033;46.310;11.214;2023-03-04T03:24:20;5.25;;;4.70;;
9986;SDS011;5033;46.310;11.214;2023-03-04T03:26:47;5.00;;;4.60;;
9986;SDS011;5033;46.310;11.214;2023-03-04T03:29:14;5.43;;;4.95;;
9986;SDS011;5033;46.310;11.214;2023-03-04T03:31:41;5.40;;;4.90;;
9986;SDS011;5033;46.310;11.214;2023-03-04T03:34:08;5.20;;;4.80;;
9986;SDS011;5033;46.310;11.214;2023-03-04T03:36:37;4.78;;;4.38;;
9986;SDS011;5033;46.310;11.214;2023-03-04T03:39:04;4.82;;;3.92;;
9986;SDS011;5033;46.310;11.214;2023-03-04T03:41:31;4.90;;;4.40;;
9986;SDS011;5033;46.310;11.214;2023-03-04T03:43:58;5.88;;;4.75;;
9986;SDS011;5033;46.310;11.214;2023-03-04T03:46:25;6.60;;;4.45;;
9986;SDS011;5033;46.310;11.214;2023-03-04T03:48:53;4.50;;;4.13;;
9986;SDS011;5033;46.310;11.214;2023-03-04T03:51:20;4.82;;;4.43;;
9986;SDS011;5033;46.310;11.214;2023-03-04T03:53:49;4.43;;;4.03;;
9986;SDS011;5033;46.310;11.214;2023-03-04T03:56:16;4.95;;;4.55;;
9986;SDS011;5033;46.310;11.214;2023-03-04T03:58:43;4.30;;;3.72;;
9986;SDS011;5033;46.310;11.214;2023-03-04T04:01:10;4.20;;;3.95;;
9986;SDS011;5033;46.310;11.214;2023-03-04T04:03:37;4.40;;;3.90;;
9986;SDS011;5033;46.310;11.214;2023-03-04T04:06:05;5.03;;;4.10;;
9986;SDS011;5033;46.310;11.214;2023-03-04T04:08:32;4.45;;;4.05;;
9986;SDS011;5033;46.310;11.214;2023-03-04T04:11:01;4.15;;;3.78;;
9986;SDS011;5033;46.310;11.214;2023-03-04T04:13:28;3.83;;;3.63;;
9986;SDS011;5033;46.310;11.214;2023-03-04T04:15:55;5.20;;;3.72;;
9986;SDS011;5033;46.310;11.214;2023-03-04T04:18:23;4.93;;;4.00;;
9986;SDS011;5033;46.310;11.214;2023-03-04T04:20:51;3.83;;;3.53;;
9986;SDS011;5033;46.310;11.214;2023-03-04T04:23:18;3.70;;;3.45;;
9986;SDS011;5033;46.310;11.214;2023-03-04T04:25:45;3.95;;;3.60;;
9986;SDS011;5033;46.310;11.214;2023-03-04T04:28:13;3.75;;;3.45;;
9986;SDS011;5033;46.310;11.214;2023-03-04T04:30:40;4.47;;;4.05;;
9986;SDS011;5033;46.310;11.214;2023-03-04T04:33:08;4.55;;;4.15;;
9986;SDS011;5033;46.310;11.214;2023-03-04T04:35:35;4.45;;;4.07;;
9986;SDS011;5033;46.310;11.214;2023-03-04T04:38:03;3.95;;;3.63;;
9986;SDS011;5033;46.310;11.214;2023-03-04T04:40:31;4.28;;;3.85;;
9986;SDS011;5033;46.310;11.214;2023-03-04T04:42:58;3.15;;;2.95;;
9986;SDS011;5033;46.310;11.214;2023-03-04T04:45:26;4.85;;;3.85;;
9986;SDS011;5033;46.310;11.214;2023-03-04T04:47:54;4.30;;;4.00;;
9986;SDS011;5033;46.310;11.214;2023-03-04T04:50:21;4.38;;;3.80;;
9986;SDS011;5033;46.310;11.214;2023-03-04T04:52:49;3.63;;;3.33;;
9986;SDS011;5033;46.310;11.214;2023-03-04T04:55:16;4.00;;;3.60;;
9986;SDS011;5033;46.310;11.214;2023-03-04T04:57:43;3.90;;;3.60;;
9986;SDS011;5033;46.310;11.214;2023-03-04T05:00:10;3.63;;;3.33;;
9986;SDS011;5033;46.310;11.214;2023-03-04T05:02:40;4.05;;;3.75;;
9986;SDS011;5033;46.310;11.214;2023-03-04T05:05:07;4.20;;;3.88;;
9986;SDS011;5033;46.310;11.214;2023-03-04T05:07:34;4.25;;;3.85;;
9986;SDS011;5033;46.310;11.214;2023-03-04T05:10:02;4.95;;;4.53;;
9986;SDS011;5033;46.310;11.214;2023-03-04T05:12:29;5.20;;;4.70;;
9986;SDS011;5033;46.310;11.214;2023-03-04T05:14:56;4.88;;;4.47;;
9986;SDS011;5033;46.310;11.214;2023-03-04T05:17:23;4.93;;;4.45;;
9986;SDS011;5033;46.310;11.214;2023-03-04T05:19:52;4.65;;;4.25;;
9986;SDS011;5033;46.310;11.214;2023-03-04T05:22:19;4.45;;;4.15;;
9986;SDS011;5033;46.310;11.214;2023-03-04T05:24:46;4.40;;;4.10;;
9986;SDS011;5033;46.310;11.214;2023-03-04T05:27:13;4.05;;;3.75;;
9986;SDS011;5033;46.310;11.214;2023-03-04T05:29:40;4.40;;;4.10;;
9986;SDS011;5033;46.310;11.214;2023-03-04T05:32:08;4.35;;;3.95;;
9986;SDS011;5033;46.310;11.214;2023-03-04T05:34:36;4.50;;;4.10;;
9986;SDS011;5033;46.310;11.214;2023-03-04T05:37:04;3.75;;;3.45;;
9986;SDS011;5033;46.310;11.214;2023-03-04T05:39:31;3.83;;;3.53;;
9986;SDS011;5033;46.310;11.214;2023-03-04T05:41:58;3.78;;;3.50;;
9986;SDS011;5033;46.310;11.214;2023-03-04T05:44:25;4.35;;;3.97;;
9986;SDS011;5033;46.310;11.214;2023-03-04T05:46:53;3.95;;;3.65;;
9986;SDS011;5033;46.310;11.214;2023-03-04T05:49:19;3.78;;;3.47;;
9986;SDS011;5033;46.310;11.214;2023-03-04T05:51:47;4.28;;;3.67;;
9986;SDS011;5033;46.310;11.214;2023-03-04T05:54:15;3.53;;;3.33;;
9986;SDS011;5033;46.310;11.214;2023-03-04T05:56:42;4.00;;;3.60;;
9986;SDS011;5033;46.310;11.214;2023-03-04T05:59:09;3.70;;;3.40;;
9986;SDS011;5033;46.310;11.214;2023-03-04T06:01:36;5.05;;;3.67;;
9986;SDS011;5033;46.310;11.214;2023-03-04T06:04:03;4.35;;;4.00;;
9986;SDS011;5033;46.310;11.214;2023-03-04T06:06:30;3.88;;;3.55;;
9986;SDS011;5033;46.310;11.214;2023-03-04T06:08:58;3.90;;;3.60;;
9986;SDS011;5033;46.310;11.214;2023-03-04T06:11:26;3.92;;;3.63;;
9986;SDS011;5033;46.310;11.214;2023-03-04T06:13:53;3.58;;;3.38;;
9986;SDS011;5033;46.310;11.214;2023-03-04T06:16:20;3.75;;;3.45;;
9986;SDS011;5033;46.310;11.214;2023-03-04T06:18:48;3.63;;;3.40;;
9986;SDS011;5033;46.310;11.214;2023-03-04T06:21:17;3.72;;;3.53;;
9986;SDS011;5033;46.310;11.214;2023-03-04T06:23:45;4.68;;;3.65;;
9986;SDS011;5033;46.310;11.214;2023-03-04T06:26:12;4.30;;;3.90;;
9986;SDS011;5033;46.310;11.214;2023-03-04T06:28:41;3.80;;;3.50;;
9986;SDS011;5033;46.310;11.214;2023-03-04T06:31:08;4.60;;;4.20;;
9986;SDS011;5033;46.310;11.214;2023-03-04T06:33:36;4.07;;;3.70;;
9986;SDS011;5033;46.310;11.214;2023-03-04T06:36:03;3.83;;;3.42;;
9986;SDS011;5033;46.310;11.214;2023-03-04T06:38:30;5.32;;;3.70;;
9986;SDS011;5033;46.310;11.214;2023-03-04T06:41:04;3.97;;;3.58;;
9986;SDS011;5033;46.310;11.214;2023-03-04T06:43:32;4.35;;;3.95;;
9986;SDS011;5033;46.310;11.214;2023-03-04T06:46:00;3.70;;;3.45;;
9986;SDS011;5033;46.310;11.214;2023-03-04T06:48:27;4.13;;;3.20;;
9986;SDS011;5033;46.310;11.214;2023-03-04T06:50:54;3.53;;;3.22;;
9986;SDS011;5033;46.310;11.214;2023-03-04T06:53:21;4.05;;;3.72;;
9986;SDS011;5033;46.310;11.214;2023-03-04T06:55:48;3.72;;;3.42;;
9986;SDS011;5033;46.310;11.214;2023-03-04T06:58:15;3.83;;;3.58;;
9986;SDS011;5033;46.310;11.214;2023-03-04T07:00:42;3.83;;;3.40;;
9986;SDS011;5033;46.310;11.214;2023-03-04T07:03:11;3.80;;;3.50;;
9986;SDS011;5033;46.310;11.214;2023-03-04T07:05:39;4.30;;;4.00;;
9986;SDS011;5033;46.310;11.214;2023-03-04T07:08:07;3.60;;;3.17;;
9986;SDS011;5033;46.310;11.214;2023-03-04T07:10:34;4.43;;;4.13;;
9986;SDS011;5033;46.310;11.214;2023-03-04T07:13:02;4.28;;;3.90;;
9986;SDS011;5033;46.310;11.214;2023-03-04T07:15:29;4.43;;;3.67;;
9986;SDS011;5033;46.310;11.214;2023-03-04T07:17:56;4.70;;;4.25;;
9986;SDS011;5033;46.310;11.214;2023-03-04T07:20:25;4.78;;;4.28;;
9986;SDS011;5033;46.310;11.214;2023-03-04T07:22:52;4.32;;;3.90;;
9986;SDS011;5033;46.310;11.214;2023-03-04T07:25:19;5.47;;;3.88;;
9986;SDS011;5033;46.310;11.214;2023-03-04T07:27:46;4.15;;;3.72;;
9986;SDS011;5033;46.310;11.214;2023-03-04T07:30:13;4.22;;;3.70;;
9986;SDS011;5033;46.310;11.214;2023-03-04T07:32:40;4.90;;;3.95;;
9986;SDS011;5033;46.310;11.214;2023-03-04T07:35:08;5.10;;;3.70;;
9986;SDS011;5033;46.310;11.214;2023-03-04T07:37:36;4.72;;;4.22;;
9986;SDS011;5033;46.310;11.214;2023-03-04T07:40:05;4.05;;;3.47;;
9986;SDS011;5033;46.310;11.214;2023-03-04T07:42:33;3.55;;;3.28;;
9986;SDS011;5033;46.310;11.214;2023-03-04T07:45:01;5.03;;;4.43;;
9986;SDS011;5033;46.310;11.214;2023-03-04T07:47:30;4.20;;;3.80;;
9986;SDS011;5033;46.310;11.214;2023-03-04T07:49:57;4.43;;;3.50;;
9986;SDS011;5033;46.310;11.214;2023-03-04T07:52:24;6.78;;;4.10;;
9986;SDS011;5033;46.310;11.214;2023-03-04T07:54:53;5.75;;;4.25;;
9986;SDS011;5033;46.310;11.214;2023-03-04T07:57:20;5.13;;;4.05;;
9986;SDS011;5033;46.310;11.214;2023-03-04T07:59:50;5.07;;;4.05;;
9986;SDS011;5033;46.310;11.214;2023-03-04T08:02:17;3.80;;;3.50;;
9986;SDS011;5033;46.310;11.214;2023-03-04T08:04:45;5.65;;;3.65;;
9986;SDS011;5033;46.310;11.214;2023-03-04T08:07:11;4.43;;;3.63;;
9986;SDS011;5033;46.310;11.214;2023-03-04T08:09:38;4.80;;;4.22;;
9986;SDS011;5033;46.310;11.214;2023-03-04T08:12:07;7.28;;;4.15;;
9986;SDS011;5033;46.310;11.214;2023-03-04T08:14:35;5.30;;;4.03;;
9986;SDS011;5033;46.310;11.214;2023-03-04T08:17:03;6.80;;;4.13;;
9986;SDS011;5033;46.310;11.214;2023-03-04T08:19:30;4.55;;;3.70;;
9986;SDS011;5033;46.310;11.214;2023-03-04T08:21:57;4.65;;;3.22;;
9986;SDS011;5033;46.310;11.214;2023-03-04T08:24:25;5.55;;;4.05;;
9986;SDS011;5033;46.310;11.214;2023-03-04T08:26:52;4.60;;;3.90;;
9986;SDS011;5033;46.310;11.214;2023-03-04T08:29:22;5.80;;;4.35;;
9986;SDS011;5033;46.310;11.214;2023-03-04T08:31:51;4.05;;;3.50;;
9986;SDS011;5033;46.310;11.214;2023-03-04T08:34:20;5.07;;;3.80;;
9986;SDS011;5033;46.310;11.214;2023-03-04T08:36:49;7.75;;;3.72;;
9986;SDS011;5033;46.310;11.214;2023-03-04T08:39:16;4.05;;;3.30;;
9986;SDS011;5033;46.310;11.214;2023-03-04T08:41:44;3.63;;;3.30;;
9986;SDS011;5033;46.310;11.214;2023-03-04T08:44:12;6.78;;;3.88;;
9986;SDS011;5033;46.310;11.214;2023-03-04T08:46:41;6.45;;;4.22;;
9986;SDS011;5033;46.310;11.214;2023-03-04T08:49:09;7.85;;;4.20;;
9986;SDS011;5033;46.310;11.214;2023-03-04T08:51:37;4.78;;;3.75;;
9986;SDS011;5033;46.310;11.214;2023-03-04T08:54:04;6.00;;;3.55;;
9986;SDS011;5033;46.310;11.214;2023-03-04T08:56:32;5.43;;;3.63;;
9986;SDS011;5033;46.310;11.214;2023-03-04T08:58:59;3.85;;;3.55;;
9986;SDS011;5033;46.310;11.214;2023-03-04T09:01:26;5.10;;;4.03;;
9986;SDS011;5033;46.310;11.214;2023-03-04T09:03:54;4.38;;;3.45;;
9986;SDS011;5033;46.310;11.214;2023-03-04T09:06:21;4.80;;;4.30;;
9986;SDS011;5033;46.310;11.214;2023-03-04T09:08:48;4.85;;;3.53;;
9986;SDS011;5033;46.310;11.214;2023-03-04T09:11:15;4.50;;;3.85;;
9986;SDS011;5033;46.310;11.214;2023-03-04T09:13:43;6.65;;;3.63;;
9986;SDS011;5033;46.310;11.214;2023-03-04T09:16:10;4.78;;;4.07;;
9986;SDS011;5033;46.310;11.214;2023-03-04T09:18:38;4.00;;;3.65;;
9986;SDS011;5033;46.310;11.214;2023-03-04T09:21:08;4.40;;;3.95;;
9986;SDS011;5033;46.310;11.214;2023-03-04T09:23:35;6.28;;;3.45;;
9986;SDS011;5033;46.310;11.214;2023-03-04T09:26:11;5.28;;;4.03;;
9986;SDS011;5033;46.310;11.214;2023-03-04T09:28:40;8.07;;;3.65;;
9986;SDS011;5033;46.310;11.214;2023-03-04T09:31:10;6.40;;;4.03;;
9986;SDS011;5033;46.310;11.214;2023-03-04T09:33:37;6.75;;;3.83;;
9986;SDS011;5033;46.310;11.214;2023-03-04T09:36:10;6.00;;;3.78;;
9986;SDS011;5033;46.310;11.214;2023-03-04T09:38:38;4.50;;;3.67;;
9986;SDS011;5033;46.310;11.214;2023-03-04T09:41:06;4.93;;;3.70;;
9986;SDS011;5033;46.310;11.214;2023-03-04T09:43:36;4.00;;;3.60;;
9986;SDS011;5033;46.310;11.214;2023-03-04T09:46:05;5.25;;;3.92;;
9986;SDS011;5033;46.310;11.214;2023-03-04T09:48:38;6.25;;;3.80;;
9986;SDS011;5033;46.310;11.214;2023-03-04T09:51:21;3.78;;;3.35;;
9986;SDS011;5033;46.310;11.214;2023-03-04T09:53:57;6.03;;;3.78;;
9986;SDS011;5033;46.310;11.214;2023-03-04T09:56:32;4.10;;;3.60;;
9986;SDS011;5033;46.310;11.214;2023-03-04T09:59:04;5.32;;;3.35;;
9986;SDS011;5033;46.310;11.214;2023-03-04T10:01:41;5.22;;;3.75;;
9986;SDS011;5033;46.310;11.214;2023-03-04T10:04:15;5.57;;;3.20;;
9986;SDS011;5033;46.310;11.214;2023-03-04T10:06:47;6.05;;;3.15;;
9986;SDS011;5033;46.310;11.214;2023-03-04T10:09:18;4.72;;;3.22;;
9986;SDS011;5033;46.310;11.214;2023-03-04T10:11:53;3.55;;;3.03;;
9986;SDS011;5033;46.310;11.214;2023-03-04T10:14:33;6.20;;;3.70;;
9986;SDS011;5033;46.310;11.214;2023-03-04T10:17:05;3.90;;;3.35;;
9986;SDS011;5033;46.310;11.214;2023-03-04T10:19:40;4.80;;;3.25;;
9986;SDS011;5033;46.310;11.214;2023-03-04T10:22:21;4.30;;;3.40;;
9986;SDS011;5033;46.310;11.214;2023-03-04T10:24:52;5.68;;;3.25;;
9986;SDS011;5033;46.310;11.214;2023-03-04T10:27:24;3.10;;;2.80;;
9986;SDS011;5033;46.310;11.214;2023-03-04T10:29:54;6.20;;;3.47;;
9986;SDS011;5033;46.310;11.214;2023-03-04T10:32:24;7.40;;;3.50;;
9986;SDS011;5033;46.310;11.214;2023-03-04T10:34:51;5.05;;;3.40;;
9986;SDS011;5033;46.310;11.214;2023-03-04T10:37:19;4.40;;;3.45;;
9986;SDS011;5033;46.310;11.214;2023-03-04T10:39:47;3.83;;;3.35;;
9986;SDS011;5033;46.310;11.214;2023-03-04T10:42:22;4.40;;;3.40;;
9986;SDS011;5033;46.310;11.214;2023-03-04T10:44:54;5.82;;;3.65;;
9986;SDS011;5033;46.310;11.214;2023-03-04T10:47:22;5.70;;;3.15;;
9986;SDS011;5033;46.310;11.214;2023-03-04T10:49:51;7.70;;;3.78;;
9986;SDS011;5033;46.310;11.214;2023-03-04T10:52:25;4.43;;;3.53;;
9986;SDS011;5033;46.310;11.214;2023-03-04T10:54:55;4.78;;;3.35;;
9986;SDS011;5033;46.310;11.214;2023-03-04T10:57:25;5.35;;;3.60;;
9986;SDS011;5033;46.310;11.214;2023-03-04T10:59:59;4.78;;;3.03;;
9986;SDS011;5033;46.310;11.214;2023-03-04T11:02:28;3.55;;;3.25;;
9986;SDS011;5033;46.310;11.214;2023-03-04T11:05:04;3.42;;;3.13;;
9986;SDS011;5033;46.310;11.214;2023-03-04T11:07:42;4.28;;;2.80;;
9986;SDS011;5033;46.310;11.214;2023-03-04T11:10:13;7.82;;;3.35;;
9986;SDS011;5033;46.310;11.214;2023-03-04T11:12:47;6.82;;;3.53;;
9986;SDS011;5033;46.310;11.214;2023-03-04T11:15:17;7.78;;;3.30;;
9986;SDS011;5033;46.310;11.214;2023-03-04T11:17:49;4.47;;;3.22;;
9986;SDS011;5033;46.310;11.214;2023-03-04T11:20:23;3.55;;;3.13;;
9986;SDS011;5033;46.310;11.214;2023-03-04T11:22:56;4.30;;;3.60;;
9986;SDS011;5033;46.310;11.214;2023-03-04T11:25:30;4.22;;;3.25;;
9986;SDS011;5033;46.310;11.214;2023-03-04T11:28:01;3.65;;;2.92;;
9986;SDS011;5033;46.310;11.214;2023-03-04T11:30:33;4.28;;;3.30;;
9986;SDS011;5033;46.310;11.214;2023-03-04T11:33:11;4.43;;;3.30;;
9986;SDS011;5033;46.310;11.214;2023-03-04T11:35:50;3.53;;;3.00;;
9986;SDS011;5033;46.310;11.214;2023-03-04T11:38:25;4.38;;;2.80;;
9986;SDS011;5033;46.310;11.214;2023-03-04T11:40:58;4.00;;;2.92;;
9986;SDS011;5033;46.310;11.214;2023-03-04T11:43:29;4.65;;;2.85;;
9986;SDS011;5033;46.310;11.214;2023-03-04T11:46:07;3.75;;;3.13;;
9986;SDS011;5033;46.310;11.214;2023-03-04T11:48:52;5.47;;;3.30;;
9986;SDS011;5033;46.310;11.214;2023-03-04T11:51:33;3.35;;;2.65;;
9986;SDS011;5033;46.310;11.214;2023-03-04T11:54:15;11.05;;;3.28;;
9986;SDS011;5033;46.310;11.214;2023-03-04T11:56:51;3.67;;;2.85;;
9986;SDS011;5033;46.310;11.214;2023-03-04T11:59:27;4.93;;;2.90;;
9986;SDS011;5033;46.310;11.214;2023-03-04T12:02:13;4.05;;;2.78;;
9986;SDS011;5033;46.310;11.214;2023-03-04T12:04:54;6.95;;;3.15;;
9986;SDS011;5033;46.310;11.214;2023-03-04T12:07:42;4.13;;;2.70;;
9986;SDS011;5033;46.310;11.214;2023-03-04T12:10:37;3.35;;;2.35;;
9986;SDS011;5033;46.310;11.214;2023-03-04T12:16:27;4.07;;;2.63;;
9986;SDS011;5033;46.310;11.214;2023-03-04T12:19:05;3.60;;;2.55;;
9986;SDS011;5033;46.310;11.214;2023-03-04T12:21:50;2.70;;;2.40;;
9986;SDS011;5033;46.310;11.214;2023-03-04T12:24:37;2.85;;;2.38;;
9986;SDS011;5033;46.310;11.214;2023-03-04T12:27:19;2.60;;;2.40;;
9986;SDS011;5033;46.310;11.214;2023-03-04T12:29:55;3.00;;;2.50;;
9986;SDS011;5033;46.310;11.214;2023-03-04T12:32:31;2.72;;;2.30;;
9986;SDS011;5033;46.310;11.214;2023-03-04T12:35:13;4.47;;;2.88;;
9986;SDS011;5033;46.310;11.214;2023-03-04T12:37:59;2.83;;;2.47;;
9986;SDS011;5033;46.310;11.214;2023-03-04T12:40:42;3.78;;;2.60;;
9986;SDS011;5033;46.310;11.214;2023-03-04T12:43:20;3.30;;;2.40;;
9986;SDS011;5033;46.310;11.214;2023-03-04T12:45:56;3.47;;;2.85;;
9986;SDS011;5033;46.310;11.214;2023-03-04T12:48:30;3.63;;;2.55;;
9986;SDS011;5033;46.310;11.214;2023-03-04T12:51:14;3.65;;;2.17;;
9986;SDS011;5033;46.310;11.214;2023-03-04T12:53:51;6.60;;;2.85;;
9986;SDS011;5033;46.310;11.214;2023-03-04T12:56:27;4.28;;;2.60;;
9986;SDS011;5033;46.310;11.214;2023-03-04T12:58:59;4.63;;;2.67;;
9986;SDS011;5033;46.310;11.214;2023-03-04T13:01:28;2.35;;;2.15;;
9986;SDS011;5033;46.310;11.214;2023-03-04T13:04:03;4.13;;;2.33;;
9986;SDS011;5033;46.310;11.214;2023-03-04T13:06:38;3.20;;;2.40;;
9986;SDS011;5033;46.310;11.214;2023-03-04T13:09:14;2.88;;;2.03;;
9986;SDS011;5033;46.310;11.214;2023-03-04T13:11:54;4.10;;;2.13;;
9986;SDS011;5033;46.310;11.214;2023-03-04T13:14:31;2.58;;;2.10;;
9986;SDS011;5033;46.310;11.214;2023-03-04T13:17:00;3.40;;;2.22;;
9986;SDS011;5033;46.310;11.214;2023-03-04T13:19:55;3.33;;;2.17;;
9986;SDS011;5033;46.310;11.214;2023-03-04T13:25:28;2.38;;;2.13;;
9986;SDS011;5033;46.310;11.214;2023-03-04T13:28:13;2.75;;;2.25;;
9986;SDS011;5033;46.310;11.214;2023-03-04T13:33:58;3.50;;;2.10;;
9986;SDS011;5033;46.310;11.214;2023-03-04T13:39:32;2.88;;;1.92;;
9986;SDS011;5033;46.310;11.214;2023-03-04T13:42:00;3.80;;;2.47;;
9986;SDS011;5033;46.310;11.214;2023-03-04T13:44:32;3.88;;;2.15;;
9986;SDS011;5033;46.310;11.214;2023-03-04T13:47:07;2.00;;;1.83;;
9986;SDS011;5033;46.310;11.214;2023-03-04T13:49:39;2.20;;;2.00;;
9986;SDS011;5033;46.310;11.214;2023-03-04T13:57:58;3.80;;;1.92;;
9986;SDS011;5033;46.310;11.214;2023-03-04T14:00:26;2.53;;;1.90;;
9986;SDS011;5033;46.310;11.214;2023-03-04T14:02:55;2.58;;;2.00;;
9986;SDS011;5033;46.310;11.214;2023-03-04T14:05:22;2.28;;;1.83;;
9986;SDS011;5033;46.310;11.214;2023-03-04T14:07:49;3.28;;;2.17;;
9986;SDS011;5033;46.310;11.214;2023-03-04T14:10:19;2.20;;;1.65;;
9986;SDS011;5033;46.310;11.214;2023-03-04T14:12:50;3.35;;;1.80;;
9986;SDS011;5033;46.310;11.214;2023-03-04T14:15:21;3.53;;;1.83;;
9986;SDS011;5033;46.310;11.214;2023-03-04T14:17:52;4.03;;;2.25;;
9986;SDS011;5033;46.310;11.214;2023-03-04T14:20:22;5.43;;;2.15;;
9986;SDS011;5033;46.310;11.214;2023-03-04T14:22:51;1.85;;;1.73;;
9986;SDS011;5033;46.310;11.214;2023-03-04T14:25:21;2.80;;;2.05;;
9986;SDS011;5033;46.310;11.214;2023-03-04T14:28:00;2.05;;;1.60;;
9986;SDS011;5033;46.310;11.214;2023-03-04T14:30:29;2.55;;;1.90;;
9986;SDS011;5033;46.310;11.214;2023-03-04T14:32:57;4.47;;;1.85;;
9986;SDS011;5033;46.310;11.214;2023-03-04T14:35:27;1.92;;;1.73;;
9986;SDS011;5033;46.310;11.214;2023-03-04T14:37:57;3.45;;;1.90;;
9986;SDS011;5033;46.310;11.214;2023-03-04T14:40:27;7.45;;;2.60;;
9986;SDS011;5033;46.310;11.214;2023-03-04T14:42:58;3.25;;;1.90;;
9986;SDS011;5033;46.310;11.214;2023-03-04T14:45:29;3.28;;;1.90;;
9986;SDS011;5033;46.310;11.214;2023-03-04T14:47:58;2.83;;;2.08;;
9986;SDS011;5033;46.310;11.214;2023-03-04T14:50:29;3.10;;;2.00;;
9986;SDS011;5033;46.310;11.214;2023-03-04T14:53:08;3.20;;;1.80;;
9986;SDS011;5033;46.310;11.214;2023-03-04T14:55:53;2.20;;;1.98;;
9986;SDS011;5033;46.310;11.214;2023-03-04T14:58:22;5.35;;;2.20;;
9986;SDS011;5033;46.310;11.214;2023-03-04T15:01:01;5.78;;;2.10;;
9986;SDS011;5033;46.310;11.214;2023-03-04T15:03:30;3.25;;;2.05;;
9986;SDS011;5033;46.310;11.214;2023-03-04T15:06:06;1.98;;;1.80;;
9986;SDS011;5033;46.310;11.214;2023-03-04T15:08:42;2.17;;;1.98;;
9986;SDS011;5033;46.310;11.214;2023-03-04T15:11:13;2.15;;;1.95;;
9986;SDS011;5033;46.310;11.214;2023-03-04T15:13:47;2.38;;;1.55;;
9986;SDS011;5033;46.310;11.214;2023-03-04T15:16:16;4.95;;;1.85;;
9986;SDS011;5033;46.310;11.214;2023-03-04T15:18:53;1.75;;;1.65;;
9986;SDS011;5033;46.310;11.214;2023-03-04T15:21:31;3.45;;;1.92;;
9986;SDS011;5033;46.310;11.214;2023-03-04T15:24:01;1.60;;;1.50;;
9986;SDS011;5033;46.310;11.214;2023-03-04T15:26:28;2.55;;;1.88;;
9986;SDS011;5033;46.310;11.214;2023-03-04T15:28:56;2.10;;;2.00;;
9986;SDS011;5033;46.310;11.214;2023-03-04T15:31:24;2.67;;;2.10;;
9986;SDS011;5033;46.310;11.214;2023-03-04T15:33:51;2.15;;;1.85;;
9986;SDS011;5033;46.310;11.214;2023-03-04T15:36:19;2.35;;;2.17;;
9986;SDS011;5033;46.310;11.214;2023-03-04T15:38:50;2.75;;;2.33;;